sensor_id;sensor_type;location;lat;lon;timestamp;temperature;humidity
27164;DHT22;14685;50.618;7.024;2024-01-30T00:00:20;10.50;99.90
27164;DHT22;14685;50.618;7.024;2024-01-30T00:02:48;10.60;99.90
27164;DHT22;14685;50.618;7.024;2024-01-30T00:05:15;10.60;99.90
27164;DHT22;14685;50.618;7.024;2024-01-30T00:07:42;10.70;99.90
27164;DHT22;14685;50.618;7.024;2024-01-30T00:10:09;10.70;99.90
27164;DHT22;14685;50.618;7.024;2024-01-30T00:12:36;10.70;99.90
27164;DHT22;14685;50.618;7.024;2024-01-30T00:15:05;10.70;99.90
27164;DHT22;14685;50.618;7.024;2024-01-30T00:17:35;10.60;99.90
27164;DHT22;14685;50.618;7.024;2024-01-30T00:20:03;10.50;99.90
27164;DHT22;14685;50.618;7.024;2024-01-30T00:22:36;10.40;99.90
27164;DHT22;14685;50.618;7.024;2024-01-30T00:25:06;10.50;99.90
27164;DHT22;14685;50.618;7.024;2024-01-30T00:27:33;10.50;99.90
27164;DHT22;14685;50.618;7.024;2024-01-30T00:30:01;10.50;99.90
27164;DHT22;14685;50.618;7.024;2024-01-30T00:32:28;10.60;99.90
27164;DHT22;14685;50.618;7.024;2024-01-30T00:34:56;10.60;99.90
27164;DHT22;14685;50.618;7.024;2024-01-30T00:37:23;10.70;99.90
27164;DHT22;14685;50.618;7.024;2024-01-30T00:39:50;10.70;99.90
27164;DHT22;14685;50.618;7.024;2024-01-30T00:42:17;10.70;99.90
27164;DHT22;14685;50.618;7.024;2024-01-30T00:44:44;10.70;99.90
27164;DHT22;14685;50.618;7.024;2024-01-30T00:47:14;10.70;99.90
27164;DHT22;14685;50.618;7.024;2024-01-30T00:49:41;10.70;99.90
27164;DHT22;14685;50.618;7.024;2024-01-30T00:52:09;10.70;99.90
27164;DHT22;14685;50.618;7.024;2024-01-30T00:54:37;10.70;99.90
27164;DHT22;14685;50.618;7.024;2024-01-30T00:57:04;10.60;99.90
27164;DHT22;14685;50.618;7.024;2024-01-30T00:59:31;10.50;99.90
27164;DHT22;14685;50.618;7.024;2024-01-30T01:01:59;10.50;99.90
27164;DHT22;14685;50.618;7.024;2024-01-30T01:04:26;10.40;99.90
27164;DHT22;14685;50.618;7.024;2024-01-30T01:06:55;10.40;99.90
27164;DHT22;14685;50.618;7.024;2024-01-30T01:09:22;10.30;99.90
27164;DHT22;14685;50.618;7.024;2024-01-30T01:11:49;10.30;99.90
27164;DHT22;14685;50.618;7.024;2024-01-30T01:14:16;10.20;99.90
27164;DHT22;14685;50.618;7.024;2024-01-30T01:16:43;10.20;99.90
27164;DHT22;14685;50.618;7.024;2024-01-30T01:19:12;10.20;99.90
27164;DHT22;14685;50.618;7.024;2024-01-30T01:21:40;10.20;99.90
27164;DHT22;14685;50.618;7.024;2024-01-30T01:24:07;10.20;99.90
27164;DHT22;14685;50.618;7.024;2024-01-30T01:26:33;10.20;99.90
27164;DHT22;14685;50.618;7.024;2024-01-30T01:29:01;10.20;99.90
27164;DHT22;14685;50.618;7.024;2024-01-30T01:31:31;10.30;99.90
27164;DHT22;14685;50.618;7.024;2024-01-30T01:33:58;10.30;99.90
27164;DHT22;14685;50.618;7.024;2024-01-30T01:36:24;10.30;99.90
27164;DHT22;14685;50.618;7.024;2024-01-30T01:38:51;10.30;99.90
27164;DHT22;14685;50.618;7.024;2024-01-30T01:41:18;10.30;99.90
27164;DHT22;14685;50.618;7.024;2024-01-30T01:43:46;10.30;99.90
27164;DHT22;14685;50.618;7.024;2024-01-30T01:46:13;10.30;99.90
27164;DHT22;14685;50.618;7.024;2024-01-30T01:48:41;10.30;99.90
27164;DHT22;14685;50.618;7.024;2024-01-30T01:51:12;10.30;99.90
27164;DHT22;14685;50.618;7.024;2024-01-30T01:53:40;10.30;99.90
27164;DHT22;14685;50.618;7.024;2024-01-30T01:56:07;10.40;99.90
27164;DHT22;14685;50.618;7.024;2024-01-30T01:58:35;10.30;99.90
27164;DHT22;14685;50.618;7.024;2024-01-30T02:01:03;10.30;99.90
27164;DHT22;14685;50.618;7.024;2024-01-30T02:03:31;10.30;99.90
27164;DHT22;14685;50.618;7.024;2024-01-30T02:05:58;10.30;99.90
27164;DHT22;14685;50.618;7.024;2024-01-30T02:08:26;10.30;99.90
27164;DHT22;14685;50.618;7.024;2024-01-30T02:10:53;10.40;99.90
27164;DHT22;14685;50.618;7.024;2024-01-30T02:13:21;10.40;99.90
27164;DHT22;14685;50.618;7.024;2024-01-30T02:15:51;10.40;99.90
27164;DHT22;14685;50.618;7.024;2024-01-30T02:18:20;10.40;99.90
27164;DHT22;14685;50.618;7.024;2024-01-30T02:20:48;10.50;99.90
27164;DHT22;14685;50.618;7.024;2024-01-30T02:23:16;10.40;99.90
27164;DHT22;14685;50.618;7.024;2024-01-30T02:25:43;10.40;99.90
27164;DHT22;14685;50.618;7.024;2024-01-30T02:28:13;10.40;99.90
27164;DHT22;14685;50.618;7.024;2024-01-30T02:30:45;10.30;99.90
27164;DHT22;14685;50.618;7.024;2024-01-30T02:33:13;10.30;99.90
27164;DHT22;14685;50.618;7.024;2024-01-30T02:35:40;10.30;99.90
27164;DHT22;14685;50.618;7.024;2024-01-30T02:38:07;10.30;99.90
27164;DHT22;14685;50.618;7.024;2024-01-30T02:40:34;10.30;99.90
27164;DHT22;14685;50.618;7.024;2024-01-30T02:43:03;10.30;99.90
27164;DHT22;14685;50.618;7.024;2024-01-30T02:45:31;10.30;99.90
27164;DHT22;14685;50.618;7.024;2024-01-30T02:47:59;10.30;99.90
27164;DHT22;14685;50.618;7.024;2024-01-30T02:50:27;10.20;99.90
27164;DHT22;14685;50.618;7.024;2024-01-30T02:52:56;10.10;99.90
27164;DHT22;14685;50.618;7.024;2024-01-30T02:55:23;10.00;99.90
27164;DHT22;14685;50.618;7.024;2024-01-30T02:57:50;10.00;99.90
27164;DHT22;14685;50.618;7.024;2024-01-30T03:00:17;10.00;99.90
27164;DHT22;14685;50.618;7.024;2024-01-30T03:02:46;10.00;99.90
27164;DHT22;14685;50.618;7.024;2024-01-30T03:05:13;10.10;99.90
27164;DHT22;14685;50.618;7.024;2024-01-30T03:07:40;10.10;99.90
27164;DHT22;14685;50.618;7.024;2024-01-30T03:10:07;10.00;99.90
27164;DHT22;14685;50.618;7.024;2024-01-30T03:12:34;10.10;99.90
27164;DHT22;14685;50.618;7.024;2024-01-30T03:15:02;10.00;99.90
27164;DHT22;14685;50.618;7.024;2024-01-30T03:17:28;10.00;99.90
27164;DHT22;14685;50.618;7.024;2024-01-30T03:19:56;10.00;99.90
27164;DHT22;14685;50.618;7.024;2024-01-30T03:22:23;10.00;99.90
27164;DHT22;14685;50.618;7.024;2024-01-30T03:24:49;10.10;99.90
27164;DHT22;14685;50.618;7.024;2024-01-30T03:27:16;10.10;99.90
27164;DHT22;14685;50.618;7.024;2024-01-30T03:29:44;10.10;99.90
27164;DHT22;14685;50.618;7.024;2024-01-30T03:32:11;10.10;99.90
27164;DHT22;14685;50.618;7.024;2024-01-30T03:34:38;10.10;99.90
27164;DHT22;14685;50.618;7.024;2024-01-30T03:37:05;10.10;99.90
27164;DHT22;14685;50.618;7.024;2024-01-30T03:39:32;10.10;99.90
27164;DHT22;14685;50.618;7.024;2024-01-30T03:41:59;10.10;99.90
27164;DHT22;14685;50.618;7.024;2024-01-30T03:44:26;10.10;99.90
27164;DHT22;14685;50.618;7.024;2024-01-30T03:46:53;10.10;99.90
27164;DHT22;14685;50.618;7.024;2024-01-30T03:49:20;10.10;99.90
27164;DHT22;14685;50.618;7.024;2024-01-30T03:51:47;10.10;99.90
27164;DHT22;14685;50.618;7.024;2024-01-30T03:54:14;10.10;99.90
27164;DHT22;14685;50.618;7.024;2024-01-30T03:56:41;10.10;99.90
27164;DHT22;14685;50.618;7.024;2024-01-30T03:59:08;10.10;99.90
27164;DHT22;14685;50.618;7.024;2024-01-30T04:01:36;10.00;99.90
27164;DHT22;14685;50.618;7.024;2024-01-30T04:04:03;10.00;99.90
27164;DHT22;14685;50.618;7.024;2024-01-30T04:06:31;10.00;99.90
27164;DHT22;14685;50.618;7.024;2024-01-30T04:08:58;10.00;99.90
27164;DHT22;14685;50.618;7.024;2024-01-30T04:11:25;10.00;99.90
27164;DHT22;14685;50.618;7.024;2024-01-30T04:13:51;10.00;99.90
27164;DHT22;14685;50.618;7.024;2024-01-30T04:16:22;10.10;99.90
27164;DHT22;14685;50.618;7.024;2024-01-30T04:18:50;10.10;99.90
27164;DHT22;14685;50.618;7.024;2024-01-30T04:21:20;10.10;99.90
27164;DHT22;14685;50.618;7.024;2024-01-30T04:23:47;10.10;99.90
27164;DHT22;14685;50.618;7.024;2024-01-30T04:26:14;10.00;99.90
27164;DHT22;14685;50.618;7.024;2024-01-30T04:28:43;10.00;99.90
27164;DHT22;14685;50.618;7.024;2024-01-30T04:31:11;9.90;99.90
27164;DHT22;14685;50.618;7.024;2024-01-30T04:33:38;9.90;99.90
27164;DHT22;14685;50.618;7.024;2024-01-30T04:36:08;9.90;99.90
27164;DHT22;14685;50.618;7.024;2024-01-30T04:38:40;9.90;99.90
27164;DHT22;14685;50.618;7.024;2024-01-30T04:41:09;10.00;99.90
27164;DHT22;14685;50.618;7.024;2024-01-30T04:43:36;10.00;99.90
27164;DHT22;14685;50.618;7.024;2024-01-30T04:46:04;10.00;99.90
27164;DHT22;14685;50.618;7.024;2024-01-30T04:48:31;10.00;99.90
27164;DHT22;14685;50.618;7.024;2024-01-30T04:50:58;10.00;99.90
27164;DHT22;14685;50.618;7.024;2024-01-30T04:53:25;10.00;99.90
27164;DHT22;14685;50.618;7.024;2024-01-30T04:55:54;9.90;99.90
27164;DHT22;14685;50.618;7.024;2024-01-30T04:58:22;9.90;99.90
27164;DHT22;14685;50.618;7.024;2024-01-30T05:00:49;9.90;99.90
27164;DHT22;14685;50.618;7.024;2024-01-30T05:03:19;10.00;99.90
27164;DHT22;14685;50.618;7.024;2024-01-30T05:05:46;9.90;99.90
27164;DHT22;14685;50.618;7.024;2024-01-30T05:08:14;9.90;99.90
27164;DHT22;14685;50.618;7.024;2024-01-30T05:10:42;10.00;99.90
27164;DHT22;14685;50.618;7.024;2024-01-30T05:13:09;10.00;99.90
27164;DHT22;14685;50.618;7.024;2024-01-30T05:15:37;10.00;99.90
27164;DHT22;14685;50.618;7.024;2024-01-30T05:18:04;10.00;99.90
27164;DHT22;14685;50.618;7.024;2024-01-30T05:20:33;10.00;99.90
27164;DHT22;14685;50.618;7.024;2024-01-30T05:23:01;10.10;99.90
27164;DHT22;14685;50.618;7.024;2024-01-30T05:25:29;10.10;99.90
27164;DHT22;14685;50.618;7.024;2024-01-30T05:27:56;10.10;99.90
27164;DHT22;14685;50.618;7.024;2024-01-30T05:30:23;10.10;99.90
27164;DHT22;14685;50.618;7.024;2024-01-30T05:32:50;10.10;99.90
27164;DHT22;14685;50.618;7.024;2024-01-30T05:35:17;10.10;99.90
27164;DHT22;14685;50.618;7.024;2024-01-30T05:37:44;10.10;99.90
27164;DHT22;14685;50.618;7.024;2024-01-30T05:40:12;10.20;99.90
27164;DHT22;14685;50.618;7.024;2024-01-30T05:42:39;10.20;99.90
27164;DHT22;14685;50.618;7.024;2024-01-30T05:45:06;10.20;99.90
27164;DHT22;14685;50.618;7.024;2024-01-30T05:47:35;10.20;99.90
27164;DHT22;14685;50.618;7.024;2024-01-30T05:50:02;10.30;99.90
27164;DHT22;14685;50.618;7.024;2024-01-30T05:52:30;10.30;99.90
27164;DHT22;14685;50.618;7.024;2024-01-30T05:54:57;10.30;99.90
27164;DHT22;14685;50.618;7.024;2024-01-30T05:57:24;10.30;99.90
27164;DHT22;14685;50.618;7.024;2024-01-30T05:59:52;10.30;99.90
27164;DHT22;14685;50.618;7.024;2024-01-30T06:02:19;10.30;99.90
27164;DHT22;14685;50.618;7.024;2024-01-30T06:04:46;10.20;99.90
27164;DHT22;14685;50.618;7.024;2024-01-30T06:07:13;10.20;99.90
27164;DHT22;14685;50.618;7.024;2024-01-30T06:09:41;10.20;99.90
27164;DHT22;14685;50.618;7.024;2024-01-30T06:12:09;10.20;99.90
27164;DHT22;14685;50.618;7.024;2024-01-30T06:14:38;10.20;99.90
27164;DHT22;14685;50.618;7.024;2024-01-30T06:17:06;10.20;99.90
27164;DHT22;14685;50.618;7.024;2024-01-30T06:19:34;10.30;99.90
27164;DHT22;14685;50.618;7.024;2024-01-30T06:22:01;10.20;99.90
27164;DHT22;14685;50.618;7.024;2024-01-30T06:24:28;10.20;99.90
27164;DHT22;14685;50.618;7.024;2024-01-30T06:26:58;10.30;99.90
27164;DHT22;14685;50.618;7.024;2024-01-30T06:29:26;10.20;99.90
27164;DHT22;14685;50.618;7.024;2024-01-30T06:31:53;10.30;99.90
27164;DHT22;14685;50.618;7.024;2024-01-30T06:34:21;10.20;99.90
27164;DHT22;14685;50.618;7.024;2024-01-30T06:36:49;10.20;99.90
27164;DHT22;14685;50.618;7.024;2024-01-30T06:39:16;10.20;99.90
27164;DHT22;14685;50.618;7.024;2024-01-30T06:41:43;10.20;99.90
27164;DHT22;14685;50.618;7.024;2024-01-30T06:44:12;10.20;99.90
27164;DHT22;14685;50.618;7.024;2024-01-30T06:46:40;10.20;99.90
27164;DHT22;14685;50.618;7.024;2024-01-30T06:49:07;10.20;99.90
27164;DHT22;14685;50.618;7.024;2024-01-30T06:51:34;10.20;99.90
27164;DHT22;14685;50.618;7.024;2024-01-30T06:54:01;10.10;99.90
27164;DHT22;14685;50.618;7.024;2024-01-30T06:56:28;10.10;99.90
27164;DHT22;14685;50.618;7.024;2024-01-30T06:58:55;10.10;99.90
27164;DHT22;14685;50.618;7.024;2024-01-30T07:01:28;10.10;99.90
27164;DHT22;14685;50.618;7.024;2024-01-30T07:03:57;10.10;99.90
27164;DHT22;14685;50.618;7.024;2024-01-30T07:06:24;10.10;99.90
27164;DHT22;14685;50.618;7.024;2024-01-30T07:08:51;10.10;99.90
27164;DHT22;14685;50.618;7.024;2024-01-30T07:11:21;10.10;99.90
27164;DHT22;14685;50.618;7.024;2024-01-30T07:13:50;10.10;99.90
27164;DHT22;14685;50.618;7.024;2024-01-30T07:16:17;10.10;99.90
27164;DHT22;14685;50.618;7.024;2024-01-30T07:18:45;10.10;99.90
27164;DHT22;14685;50.618;7.024;2024-01-30T07:21:12;10.10;99.90
27164;DHT22;14685;50.618;7.024;2024-01-30T07:23:40;10.10;99.90
27164;DHT22;14685;50.618;7.024;2024-01-30T07:26:08;10.10;99.90
27164;DHT22;14685;50.618;7.024;2024-01-30T07:28:35;10.10;99.90
27164;DHT22;14685;50.618;7.024;2024-01-30T07:31:02;10.00;99.90
27164;DHT22;14685;50.618;7.024;2024-01-30T07:33:31;10.10;99.90
27164;DHT22;14685;50.618;7.024;2024-01-30T07:35:58;10.10;99.90
27164;DHT22;14685;50.618;7.024;2024-01-30T07:38:25;10.10;99.90
27164;DHT22;14685;50.618;7.024;2024-01-30T07:40:52;10.10;99.90
27164;DHT22;14685;50.618;7.024;2024-01-30T07:43:19;10.00;99.90
27164;DHT22;14685;50.618;7.024;2024-01-30T07:45:47;10.10;99.90
27164;DHT22;14685;50.618;7.024;2024-01-30T07:48:14;10.10;99.90
27164;DHT22;14685;50.618;7.024;2024-01-30T07:50:41;10.10;99.90
27164;DHT22;14685;50.618;7.024;2024-01-30T07:53:08;10.10;99.90
27164;DHT22;14685;50.618;7.024;2024-01-30T07:55:35;10.20;99.90
27164;DHT22;14685;50.618;7.024;2024-01-30T07:58:03;10.20;99.90
27164;DHT22;14685;50.618;7.024;2024-01-30T08:00:53;10.20;99.90
27164;DHT22;14685;50.618;7.024;2024-01-30T08:03:20;10.30;99.90
27164;DHT22;14685;50.618;7.024;2024-01-30T08:05:47;10.40;99.90
27164;DHT22;14685;50.618;7.024;2024-01-30T08:08:14;10.50;99.90
27164;DHT22;14685;50.618;7.024;2024-01-30T08:10:41;10.50;99.90
27164;DHT22;14685;50.618;7.024;2024-01-30T08:13:08;10.60;99.90
27164;DHT22;14685;50.618;7.024;2024-01-30T08:15:36;10.50;99.90
27164;DHT22;14685;50.618;7.024;2024-01-30T08:18:04;10.50;99.90
27164;DHT22;14685;50.618;7.024;2024-01-30T08:20:33;10.50;99.90
27164;DHT22;14685;50.618;7.024;2024-01-30T08:23:00;10.60;99.90
27164;DHT22;14685;50.618;7.024;2024-01-30T08:25:27;10.60;99.90
27164;DHT22;14685;50.618;7.024;2024-01-30T08:27:54;10.60;99.90
27164;DHT22;14685;50.618;7.024;2024-01-30T08:30:21;10.70;99.90
27164;DHT22;14685;50.618;7.024;2024-01-30T08:32:50;10.70;99.90
27164;DHT22;14685;50.618;7.024;2024-01-30T08:35:17;10.70;99.90
27164;DHT22;14685;50.618;7.024;2024-01-30T08:37:44;10.70;99.90
27164;DHT22;14685;50.618;7.024;2024-01-30T08:40:11;10.80;99.90
27164;DHT22;14685;50.618;7.024;2024-01-30T08:42:38;10.80;99.90
27164;DHT22;14685;50.618;7.024;2024-01-30T08:45:05;10.80;99.90
27164;DHT22;14685;50.618;7.024;2024-01-30T08:47:32;10.80;99.90
27164;DHT22;14685;50.618;7.024;2024-01-30T08:50:00;10.80;99.90
27164;DHT22;14685;50.618;7.024;2024-01-30T08:52:27;10.80;99.90
27164;DHT22;14685;50.618;7.024;2024-01-30T08:54:54;10.90;99.90
27164;DHT22;14685;50.618;7.024;2024-01-30T08:57:21;10.90;99.90
27164;DHT22;14685;50.618;7.024;2024-01-30T08:59:48;11.00;99.90
27164;DHT22;14685;50.618;7.024;2024-01-30T09:02:15;11.10;99.90
27164;DHT22;14685;50.618;7.024;2024-01-30T09:04:45;11.20;99.90
27164;DHT22;14685;50.618;7.024;2024-01-30T09:07:12;11.20;99.90
27164;DHT22;14685;50.618;7.024;2024-01-30T09:09:41;11.30;99.90
27164;DHT22;14685;50.618;7.024;2024-01-30T09:12:08;11.30;99.90
27164;DHT22;14685;50.618;7.024;2024-01-30T09:14:39;11.40;99.90
27164;DHT22;14685;50.618;7.024;2024-01-30T09:17:07;11.40;99.90
27164;DHT22;14685;50.618;7.024;2024-01-30T09:19:35;11.40;99.90
27164;DHT22;14685;50.618;7.024;2024-01-30T09:22:02;11.40;99.90
27164;DHT22;14685;50.618;7.024;2024-01-30T09:24:30;11.40;99.90
27164;DHT22;14685;50.618;7.024;2024-01-30T09:26:58;11.50;99.90
27164;DHT22;14685;50.618;7.024;2024-01-30T09:29:25;11.50;99.90
27164;DHT22;14685;50.618;7.024;2024-01-30T09:31:52;11.60;99.90
27164;DHT22;14685;50.618;7.024;2024-01-30T09:34:19;11.80;99.90
27164;DHT22;14685;50.618;7.024;2024-01-30T09:36:47;12.00;99.90
27164;DHT22;14685;50.618;7.024;2024-01-30T09:39:13;12.10;99.90
27164;DHT22;14685;50.618;7.024;2024-01-30T09:41:49;12.10;99.90
27164;DHT22;14685;50.618;7.024;2024-01-30T09:44:16;12.30;99.90
27164;DHT22;14685;50.618;7.024;2024-01-30T09:46:47;12.30;99.90
27164;DHT22;14685;50.618;7.024;2024-01-30T09:49:14;12.30;99.90
27164;DHT22;14685;50.618;7.024;2024-01-30T09:51:45;12.30;99.90
27164;DHT22;14685;50.618;7.024;2024-01-30T09:54:14;12.30;99.90
27164;DHT22;14685;50.618;7.024;2024-01-30T09:56:42;12.30;99.90
27164;DHT22;14685;50.618;7.024;2024-01-30T09:59:09;12.20;99.90
27164;DHT22;14685;50.618;7.024;2024-01-30T10:01:36;12.20;99.90
27164;DHT22;14685;50.618;7.024;2024-01-30T10:04:04;12.20;99.90
27164;DHT22;14685;50.618;7.024;2024-01-30T10:06:32;12.20;99.90
27164;DHT22;14685;50.618;7.024;2024-01-30T10:08:59;12.20;99.90
27164;DHT22;14685;50.618;7.024;2024-01-30T10:11:27;12.20;99.90
27164;DHT22;14685;50.618;7.024;2024-01-30T10:13:54;12.20;99.90
27164;DHT22;14685;50.618;7.024;2024-01-30T10:16:23;12.20;99.90
27164;DHT22;14685;50.618;7.024;2024-01-30T10:18:51;12.20;99.90
27164;DHT22;14685;50.618;7.024;2024-01-30T10:21:18;12.30;99.90
27164;DHT22;14685;50.618;7.024;2024-01-30T10:23:47;12.30;99.90
27164;DHT22;14685;50.618;7.024;2024-01-30T10:26:16;12.20;99.90
27164;DHT22;14685;50.618;7.024;2024-01-30T10:28:44;12.30;99.90
27164;DHT22;14685;50.618;7.024;2024-01-30T10:31:16;12.30;99.90
27164;DHT22;14685;50.618;7.024;2024-01-30T10:33:44;12.30;99.90
27164;DHT22;14685;50.618;7.024;2024-01-30T10:36:14;12.30;99.90
27164;DHT22;14685;50.618;7.024;2024-01-30T10:38:48;12.30;99.90
27164;DHT22;14685;50.618;7.024;2024-01-30T10:41:20;12.30;99.90
27164;DHT22;14685;50.618;7.024;2024-01-30T10:44:08;12.30;99.90
27164;DHT22;14685;50.618;7.024;2024-01-30T10:46:38;12.30;99.90
27164;DHT22;14685;50.618;7.024;2024-01-30T10:49:06;12.20;99.90
27164;DHT22;14685;50.618;7.024;2024-01-30T10:51:34;12.20;99.90
27164;DHT22;14685;50.618;7.024;2024-01-30T10:54:03;12.20;99.90
27164;DHT22;14685;50.618;7.024;2024-01-30T10:56:32;12.20;99.90
27164;DHT22;14685;50.618;7.024;2024-01-30T10:59:00;12.20;99.90
27164;DHT22;14685;50.618;7.024;2024-01-30T11:01:28;12.10;99.90
27164;DHT22;14685;50.618;7.024;2024-01-30T11:03:55;12.20;99.90
27164;DHT22;14685;50.618;7.024;2024-01-30T11:06:25;12.20;99.90
27164;DHT22;14685;50.618;7.024;2024-01-30T11:09:09;12.20;99.90
27164;DHT22;14685;50.618;7.024;2024-01-30T11:14:16;12.20;99.90
27164;DHT22;14685;50.618;7.024;2024-01-30T11:16:43;12.20;99.90
27164;DHT22;14685;50.618;7.024;2024-01-30T11:19:12;12.20;99.90
27164;DHT22;14685;50.618;7.024;2024-01-30T11:21:42;12.20;99.90
27164;DHT22;14685;50.618;7.024;2024-01-30T11:24:14;12.30;99.90
27164;DHT22;14685;50.618;7.024;2024-01-30T11:26:42;12.30;99.90
27164;DHT22;14685;50.618;7.024;2024-01-30T11:29:13;12.30;99.90
27164;DHT22;14685;50.618;7.024;2024-01-30T11:31:40;12.30;99.90
27164;DHT22;14685;50.618;7.024;2024-01-30T11:34:52;12.30;99.90
27164;DHT22;14685;50.618;7.024;2024-01-30T11:37:20;12.30;99.90
27164;DHT22;14685;50.618;7.024;2024-01-30T11:39:48;12.30;99.90
27164;DHT22;14685;50.618;7.024;2024-01-30T11:42:17;12.30;99.90
27164;DHT22;14685;50.618;7.024;2024-01-30T11:44:47;12.30;99.90
27164;DHT22;14685;50.618;7.024;2024-01-30T11:47:16;12.40;99.90
27164;DHT22;14685;50.618;7.024;2024-01-30T11:49:43;12.40;99.90
27164;DHT22;14685;50.618;7.024;2024-01-30T11:52:10;12.40;99.90
27164;DHT22;14685;50.618;7.024;2024-01-30T11:54:40;12.40;99.90
27164;DHT22;14685;50.618;7.024;2024-01-30T11:57:07;12.50;99.90
27164;DHT22;14685;50.618;7.024;2024-01-30T11:59:33;12.50;99.90
27164;DHT22;14685;50.618;7.024;2024-01-30T12:02:01;12.50;99.90
27164;DHT22;14685;50.618;7.024;2024-01-30T12:04:29;12.50;99.90
27164;DHT22;14685;50.618;7.024;2024-01-30T12:06:56;12.60;99.90
27164;DHT22;14685;50.618;7.024;2024-01-30T12:09:25;12.60;99.90
27164;DHT22;14685;50.618;7.024;2024-01-30T12:11:52;12.60;99.90
27164;DHT22;14685;50.618;7.024;2024-01-30T12:14:19;12.60;99.90
27164;DHT22;14685;50.618;7.024;2024-01-30T12:16:50;12.70;99.90
27164;DHT22;14685;50.618;7.024;2024-01-30T12:19:24;12.70;99.90
27164;DHT22;14685;50.618;7.024;2024-01-30T12:21:57;12.80;99.90
27164;DHT22;14685;50.618;7.024;2024-01-30T12:24:27;12.80;99.90
27164;DHT22;14685;50.618;7.024;2024-01-30T12:26:59;12.80;99.90
27164;DHT22;14685;50.618;7.024;2024-01-30T12:29:27;12.80;99.90
27164;DHT22;14685;50.618;7.024;2024-01-30T12:32:02;12.80;99.90
27164;DHT22;14685;50.618;7.024;2024-01-30T12:34:29;12.80;99.90
27164;DHT22;14685;50.618;7.024;2024-01-30T12:37:15;12.80;99.90
27164;DHT22;14685;50.618;7.024;2024-01-30T12:39:46;12.80;99.90
27164;DHT22;14685;50.618;7.024;2024-01-30T12:42:14;12.70;99.90
27164;DHT22;14685;50.618;7.024;2024-01-30T12:44:41;12.70;99.90
27164;DHT22;14685;50.618;7.024;2024-01-30T12:47:09;12.70;99.90
27164;DHT22;14685;50.618;7.024;2024-01-30T12:49:36;12.70;99.90
27164;DHT22;14685;50.618;7.024;2024-01-30T12:52:04;12.70;99.90
27164;DHT22;14685;50.618;7.024;2024-01-30T12:54:31;12.60;99.90
27164;DHT22;14685;50.618;7.024;2024-01-30T12:56:58;12.70;99.90
27164;DHT22;14685;50.618;7.024;2024-01-30T12:59:25;12.70;99.90
27164;DHT22;14685;50.618;7.024;2024-01-30T13:01:52;12.70;99.90
27164;DHT22;14685;50.618;7.024;2024-01-30T13:04:19;12.70;99.90
27164;DHT22;14685;50.618;7.024;2024-01-30T13:06:46;12.80;99.90
27164;DHT22;14685;50.618;7.024;2024-01-30T13:09:14;12.80;99.90
27164;DHT22;14685;50.618;7.024;2024-01-30T13:11:43;12.90;99.90
27164;DHT22;14685;50.618;7.024;2024-01-30T13:14:10;12.90;99.90
27164;DHT22;14685;50.618;7.024;2024-01-30T13:16:37;12.90;99.90
27164;DHT22;14685;50.618;7.024;2024-01-30T13:19:04;12.90;99.90
27164;DHT22;14685;50.618;7.024;2024-01-30T13:21:31;12.90;99.90
27164;DHT22;14685;50.618;7.024;2024-01-30T13:23:58;12.90;99.90
27164;DHT22;14685;50.618;7.024;2024-01-30T13:26:25;13.00;99.90
27164;DHT22;14685;50.618;7.024;2024-01-30T13:28:52;13.00;99.90
27164;DHT22;14685;50.618;7.024;2024-01-30T13:31:19;13.00;99.90
27164;DHT22;14685;50.618;7.024;2024-01-30T13:33:47;13.00;99.90
27164;DHT22;14685;50.618;7.024;2024-01-30T13:36:15;13.00;99.90
27164;DHT22;14685;50.618;7.024;2024-01-30T13:38:43;13.00;99.90
27164;DHT22;14685;50.618;7.024;2024-01-30T13:41:10;13.00;99.90
27164;DHT22;14685;50.618;7.024;2024-01-30T13:43:39;13.00;99.90
27164;DHT22;14685;50.618;7.024;2024-01-30T13:46:07;13.00;99.90
27164;DHT22;14685;50.618;7.024;2024-01-30T13:48:37;12.90;99.90
27164;DHT22;14685;50.618;7.024;2024-01-30T13:51:04;12.90;99.90
27164;DHT22;14685;50.618;7.024;2024-01-30T13:53:33;12.90;99.90
27164;DHT22;14685;50.618;7.024;2024-01-30T13:56:00;12.90;99.90
27164;DHT22;14685;50.618;7.024;2024-01-30T13:58:27;12.90;99.90
27164;DHT22;14685;50.618;7.024;2024-01-30T14:00:54;12.90;99.90
27164;DHT22;14685;50.618;7.024;2024-01-30T14:03:21;12.90;99.90
27164;DHT22;14685;50.618;7.024;2024-01-30T14:05:48;12.90;99.90
27164;DHT22;14685;50.618;7.024;2024-01-30T14:08:15;12.90;99.90
27164;DHT22;14685;50.618;7.024;2024-01-30T14:10:43;12.90;99.90
27164;DHT22;14685;50.618;7.024;2024-01-30T14:13:10;12.90;99.90
27164;DHT22;14685;50.618;7.024;2024-01-30T14:15:38;12.90;99.90
27164;DHT22;14685;50.618;7.024;2024-01-30T14:18:06;13.00;99.90
27164;DHT22;14685;50.618;7.024;2024-01-30T14:20:35;13.10;99.90
27164;DHT22;14685;50.618;7.024;2024-01-30T14:23:02;13.10;99.90
27164;DHT22;14685;50.618;7.024;2024-01-30T14:25:29;13.20;99.90
27164;DHT22;14685;50.618;7.024;2024-01-30T14:27:57;13.20;99.90
27164;DHT22;14685;50.618;7.024;2024-01-30T14:30:24;13.30;99.90
27164;DHT22;14685;50.618;7.024;2024-01-30T14:32:52;13.40;99.90
27164;DHT22;14685;50.618;7.024;2024-01-30T14:35:19;13.40;99.90
27164;DHT22;14685;50.618;7.024;2024-01-30T14:37:47;13.40;99.90
27164;DHT22;14685;50.618;7.024;2024-01-30T14:40:14;13.50;99.90
27164;DHT22;14685;50.618;7.024;2024-01-30T14:42:41;13.50;99.90
27164;DHT22;14685;50.618;7.024;2024-01-30T14:45:08;13.50;99.90
27164;DHT22;14685;50.618;7.024;2024-01-30T14:47:36;13.60;99.90
27164;DHT22;14685;50.618;7.024;2024-01-30T14:50:04;13.60;99.90
27164;DHT22;14685;50.618;7.024;2024-01-30T14:52:35;13.60;99.90
27164;DHT22;14685;50.618;7.024;2024-01-30T14:55:02;13.60;99.90
27164;DHT22;14685;50.618;7.024;2024-01-30T14:57:31;13.60;99.90
27164;DHT22;14685;50.618;7.024;2024-01-30T14:59:58;13.60;99.90
27164;DHT22;14685;50.618;7.024;2024-01-30T15:02:26;13.70;99.90
27164;DHT22;14685;50.618;7.024;2024-01-30T15:04:54;13.70;99.90
27164;DHT22;14685;50.618;7.024;2024-01-30T15:07:22;13.70;99.90
27164;DHT22;14685;50.618;7.024;2024-01-30T15:10:01;13.70;99.90
27164;DHT22;14685;50.618;7.024;2024-01-30T15:12:30;13.80;99.90
27164;DHT22;14685;50.618;7.024;2024-01-30T15:14:57;13.80;99.90
27164;DHT22;14685;50.618;7.024;2024-01-30T15:17:24;13.80;99.90
27164;DHT22;14685;50.618;7.024;2024-01-30T15:19:52;13.80;99.90
27164;DHT22;14685;50.618;7.024;2024-01-30T15:22:19;13.80;99.90
27164;DHT22;14685;50.618;7.024;2024-01-30T15:24:46;13.90;99.90
27164;DHT22;14685;50.618;7.024;2024-01-30T15:27:13;13.90;99.90
27164;DHT22;14685;50.618;7.024;2024-01-30T15:29:40;13.90;99.90
27164;DHT22;14685;50.618;7.024;2024-01-30T15:32:07;13.90;99.90
27164;DHT22;14685;50.618;7.024;2024-01-30T15:34:36;13.90;99.90
27164;DHT22;14685;50.618;7.024;2024-01-30T15:37:03;13.90;99.90